Latest Weather Observations for Inner Beacon

IDQ60901

Issued at 7:31 pm EST Friday 26 February 2021 (issued every 10 minutes, with the page automatically refreshed every 10 minutes)

About weather observations | Map of Brisbane area stations | Latest observations for Brisbane area | Other Formats
Station Details ID: 040926 Name: INNER RECIPROCAL MARKER Lat: -27.26 Lon: 153.24 Height: 10.0 m
Data from the previous 72 hours. | See also: Recent months at Inner Beacon
Date/Time
EST
Temp
°C
App
Temp
°C
Dew
Point
°C
Rel
Hum
%
Delta-T
°C
Wind Press
QNH
hPa
Press
MSL
hPa
Rain since
9am
mm
Dir  Spd
km/h
Gust
km/h
Spd
kts
Gust
kts
26/07:30pm - - - - - NE 22 28 12 15 - - -
26/07:00pm - - - - - NNE 26 30 14 16 - - -
26/06:30pm - - - - - NE 22 26 12 14 - - -
26/06:00pm - - - - - NE 22 24 12 13 - - -
26/05:30pm - - - - - NE 24 28 13 15 - - -
26/05:00pm - - - - - NE 24 26 13 14 - - -
26/04:30pm - - - - - NE 22 24 12 13 - - -
26/04:00pm - - - - - NNE 17 20 9 11 - - -
26/03:30pm - - - - - NE 19 20 10 11 - - -
26/03:00pm - - - - - ENE 15 17 8 9 - - -
26/02:30pm - - - - - ENE 13 17 7 9 - - -
26/02:00pm - - - - - ENE 13 17 7 9 - - -
26/01:30pm - - - - - NE 13 15 7 8 - - -
26/01:00pm - - - - - NE 9 11 5 6 - - -
26/12:30pm - - - - - NE 7 11 4 6 - - -
26/12:00pm - - - - - N 2 7 1 4 - - -
26/11:30am - - - - - N 6 7 3 4 - - -
26/11:00am - - - - - N 4 6 2 3 - - -
26/10:30am - - - - - N 4 7 2 4 - - -
26/10:00am - - - - - CALM 0 0 0 0 - - -
26/09:30am - - - - - CALM 0 0 0 0 - - -
26/09:00am - - - - - CALM 0 0 0 0 - - -
26/08:30am - - - - - WSW 6 7 3 4 - - -
26/08:00am - - - - - WNW 6 7 3 4 - - -
26/07:30am - - - - - NW 6 7 3 4 - - -
26/07:00am - - - - - NW 4 6 2 3 - - -
26/06:30am - - - - - NW 6 7 3 4 - - -
26/06:00am - - - - - WNW 6 7 3 4 - - -
26/05:30am - - - - - NW 7 9 4 5 - - -
26/05:00am - - - - - N 7 9 4 5 - - -
26/04:30am - - - - - NNE 7 9 4 5 - - -
26/04:00am - - - - - NNE 9 11 5 6 - - -
26/03:30am - - - - - NE 11 13 6 7 - - -
26/03:00am - - - - - NNE 11 15 6 8 - - -
26/02:30am - - - - - NE 13 17 7 9 - - -
26/02:00am - - - - - NE 17 22 9 12 - - -
26/01:30am - - - - - NNE 19 20 10 11 - - -
26/01:00am - - - - - NNE 17 20 9 11 - - -
26/12:30am - - - - - NNE 17 19 9 10 - - -
26/12:00am - - - - - NE 15 19 8 10 - - -
 
Date/Time
EST
Temp
°C
App
Temp
°C
Dew
Point
°C
Rel
Hum
%
Delta-T
°C
Wind Press
QNH
hPa
Press
MSL
hPa
Rain since
9am
mm
Dir  Spd
km/h
Gust
km/h
Spd
kts
Gust
kts
25/11:30pm - - - - - NE 13 15 7 8 - - -
25/11:00pm - - - - - NE 13 15 7 8 - - -
25/10:30pm - - - - - NE 13 15 7 8 - - -
25/10:00pm - - - - - NE 17 20 9 11 - - -
25/09:30pm - - - - - NE 17 20 9 11 - - -
25/09:00pm - - - - - ENE 17 22 9 12 - - -
25/08:30pm - - - - - ENE 20 24 11 13 - - -
25/08:00pm - - - - - ENE 19 22 10 12 - - -
25/07:30pm - - - - - ENE 20 26 11 14 - - -
25/07:00pm - - - - - NE 20 24 11 13 - - -
25/06:30pm - - - - - NE 19 22 10 12 - - -
25/06:00pm - - - - - ENE 17 20 9 11 - - -
25/05:30pm - - - - - NE 19 22 10 12 - - -
25/05:00pm - - - - - ENE 20 24 11 13 - - -
25/04:30pm - - - - - ENE 19 22 10 12 - - -
25/04:00pm - - - - - E 15 17 8 9 - - -
25/03:30pm - - - - - E 13 17 7 9 - - -
25/03:00pm - - - - - E 15 19 8 10 - - -
25/02:30pm - - - - - ENE 17 22 9 12 - - -
25/02:00pm - - - - - E 17 24 9 13 - - -
25/01:30pm - - - - - E 7 13 4 7 - - -
25/01:00pm - - - - - ENE 15 22 8 12 - - -
25/12:30pm - - - - - NNE 22 26 12 14 - - -
25/12:00pm - - - - - ENE 20 24 11 13 - - -
25/11:30am - - - - - ENE 20 26 11 14 - - -
25/11:00am - - - - - E 20 26 11 14 - - -
25/10:30am - - - - - ENE 24 32 13 17 - - -
25/10:00am - - - - - E 20 26 11 14 - - -
25/09:30am - - - - - E 22 28 12 15 - - -
25/09:00am - - - - - ESE 17 20 9 11 - - -
25/08:30am - - - - - E 15 20 8 11 - - -
25/08:00am - - - - - E 20 26 11 14 - - -
25/07:30am - - - - - E 19 24 10 13 - - -
25/07:00am - - - - - E 15 20 8 11 - - -
25/06:30am - - - - - E 19 24 10 13 - - -
25/06:00am - - - - - E 13 19 7 10 - - -
25/05:30am - - - - - E 19 28 10 15 - - -
25/05:00am - - - - - E 24 30 13 16 - - -
25/04:30am - - - - - E 15 26 8 14 - - -
25/04:00am - - - - - E 17 22 9 12 - - -
25/03:30am - - - - - E 19 24 10 13 - - -
25/03:00am - - - - - E 22 26 12 14 - - -
25/02:30am - - - - - E 22 28 12 15 - - -
25/02:00am - - - - - E 22 26 12 14 - - -
25/01:30am - - - - - ENE 26 30 14 16 - - -
25/01:00am - - - - - E 22 28 12 15 - - -
25/12:30am - - - - - E 22 28 12 15 - - -
25/12:00am - - - - - E 24 28 13 15 - - -
 
Date/Time
EST
Temp
°C
App
Temp
°C
Dew
Point
°C
Rel
Hum
%
Delta-T
°C
Wind Press
QNH
hPa
Press
MSL
hPa
Rain since
9am
mm
Dir  Spd
km/h
Gust
km/h
Spd
kts
Gust
kts
24/11:30pm - - - - - E 22 30 12 16 - - -
24/11:00pm - - - - - E 22 28 12 15 - - -
24/10:30pm - - - - - E 26 32 14 17 - - -
24/10:00pm - - - - - E 26 32 14 17 - - -
24/09:30pm - - - - - E 26 32 14 17 - - -
24/09:00pm - - - - - E 24 32 13 17 - - -
24/08:30pm - - - - - E 30 35 16 19 - - -
24/08:00pm - - - - - E 26 35 14 19 - - -
24/07:30pm - - - - - E 26 35 14 19 - - -
24/07:00pm - - - - - E 30 35 16 19 - - -
24/06:30pm - - - - - E 26 33 14 18 - - -
24/06:00pm - - - - - E 24 32 13 17 - - -
24/05:30pm - - - - - E 22 32 12 17 - - -
24/05:00pm - - - - - E 26 32 14 17 - - -
24/04:30pm - - - - - E 20 28 11 15 - - -
24/04:00pm - - - - - E 20 28 11 15 - - -
24/03:30pm - - - - - E 13 17 7 9 - - -
24/03:00pm - - - - - ESE 13 19 7 10 - - -
24/02:30pm - - - - - E 11 17 6 9 - - -
24/02:00pm - - - - - E 11 15 6 8 - - -
24/01:30pm - - - - - E 11 15 6 8 - - -
24/01:00pm - - - - - E 11 13 6 7 - - -
24/12:30pm - - - - - E 13 20 7 11 - - -
24/12:00pm - - - - - E 9 13 5 7 - - -
24/11:30am - - - - - E 13 17 7 9 - - -
24/11:00am - - - - - E 17 20 9 11 - - -
24/10:30am - - - - - E 19 26 10 14 - - -
24/10:00am - - - - - E 19 24 10 13 - - -
24/09:30am - - - - - E 22 28 12 15 - - -
24/09:00am - - - - - E 15 22 8 12 - - -
24/08:30am - - - - - E 20 35 11 19 - - -
24/08:00am - - - - - E 35 46 19 25 - - -
24/07:30am - - - - - SE 26 32 14 17 - - -
24/07:00am - - - - - SSE 30 35 16 19 - - -
24/06:30am - - - - - SSE 20 28 11 15 - - -
24/06:00am - - - - - S 17 20 9 11 - - -
24/05:30am - - - - - SSE 19 24 10 13 - - -
24/05:00am - - - - - S 15 19 8 10 - - -
24/04:30am - - - - - SSW 15 17 8 9 - - -
24/04:00am - - - - - S 13 17 7 9 - - -
24/03:30am - - - - - S 13 17 7 9 - - -
24/03:00am - - - - - S 17 20 9 11 - - -
24/02:30am - - - - - SSE 19 22 10 12 - - -
24/02:00am - - - - - S 22 26 12 14 - - -
24/01:30am - - - - - SSE 11 26 6 14 - - -
24/01:00am - - - - - SE 9 11 5 6 - - -
24/12:30am - - - - - E 4 7 2 4 - - -
24/12:00am - - - - - NE 15 20 8 11 - - -
 
Date/Time
EST
Temp
°C
App
Temp
°C
Dew
Point
°C
Rel
Hum
%
Delta-T
°C
Wind Press
QNH
hPa
Press
MSL
hPa
Rain since
9am
mm
Dir  Spd
km/h
Gust
km/h
Spd
kts
Gust
kts
23/11:30pm - - - - - ENE 22 26 12 14 - - -
23/11:00pm - - - - - E 24 32 13 17 - - -
23/10:30pm - - - - - E 13 17 7 9 - - -
23/10:00pm - - - - - SE 7 11 4 6 - - -
23/09:30pm - - - - - E 26 37 14 20 - - -
23/09:08pm - - - - - E 44 63 24 34 - - -
23/09:00pm - - - - - E 48 63 26 34 - - -
23/08:30pm - - - - - E 35 54 19 29 - - -
23/08:27pm - - - - - E 28 48 15 26 - - -
23/08:13pm - - - - - ESE 37 52 20 28 - - -
23/08:08pm - - - - - SE 37 52 20 28 - - -
23/08:00pm - - - - - SSE 35 43 19 23 - - -

Latest Capital City Observations: Canberra | Sydney | Melbourne | Brisbane | Adelaide | Perth | Hobart | Darwin

Other formats

Comma delimited format used in spreadsheet applications
http://www.bom.gov.au/fwo/IDQ60901/IDQ60901.94590.axf

JavaScript Object Notation format (JSON) in row-major order
http://www.bom.gov.au/fwo/IDQ60901/IDQ60901.94590.json

Data quality

Most of these data are generated automatically and are frequently updated. Quality checks on data are not normally performed. It is possible for incorrect values to appear. Refer to information at About Latest Weather Observations and please check the disclaimer before using these data.